Time;durP1;ratioP1;P1;durP2;ratioP2;P2;SDS_P1;SDS_P2;PMS_P1;PMS_P2;Temp;Humidity;BMP_temperature;BMP_pressure;BME280_temperature;BME280_humidity;BME280_pressure;Samples;Min_cycle;Max_cycle;Signal;HPM_P1;HPM_P2
2022/08/07 00:00:43;;;;;;;1.37;0.90;;;;;;;15.77;51.88;98725.66;5086394;28;20568;-67
2022/08/07 00:03:10;;;;;;;0.83;0.83;;;;;;;15.70;52.14;98725.28;5089773;28;20214;-67
2022/08/07 00:05:37;;;;;;;1.00;0.90;;;;;;;15.66;52.08;98723.00;5089845;28;20301;-68
2022/08/07 00:08:04;;;;;;;2.43;1.10;;;;;;;15.63;51.89;98720.59;5088992;28;20236;-67
2022/08/07 00:10:31;;;;;;;1.20;1.00;;;;;;;15.64;51.91;98722.28;5086337;28;20249;-67
2022/08/07 00:13:00;;;;;;;2.17;0.80;;;;;;;15.85;50.35;98717.88;5089748;28;20210;-67
2022/08/07 00:15:27;;;;;;;1.23;0.70;;;;;;;15.88;50.26;98723.81;5089490;28;20677;-67
2022/08/07 00:17:55;;;;;;;0.93;0.90;;;;;;;15.73;51.91;98718.88;5087809;28;20215;-66
2022/08/07 00:20:21;;;;;;;1.10;1.00;;;;;;;15.54;52.96;98713.34;5086359;28;20236;-67
2022/08/07 00:22:48;;;;;;;2.17;0.90;;;;;;;15.48;53.10;98719.16;5089588;28;20206;-67
2022/08/07 00:25:14;;;;;;;1.17;1.00;;;;;;;15.49;52.64;98715.50;5089351;28;20679;-67
2022/08/07 00:27:41;;;;;;;1.40;1.00;;;;;;;15.58;52.10;98717.47;5089586;28;20213;-67
2022/08/07 00:30:09;;;;;;;1.00;0.80;;;;;;;15.57;52.47;98718.44;5085979;28;20216;-67
2022/08/07 00:32:35;;;;;;;0.87;0.87;;;;;;;15.51;53.18;98705.59;5089379;28;20589;-67
2022/08/07 00:35:03;;;;;;;0.90;0.90;;;;;;;15.53;52.70;98709.81;5089487;28;20218;-67
2022/08/07 00:37:30;;;;;;;1.43;0.80;;;;;;;15.45;52.90;98714.91;5089216;28;20683;-67
2022/08/07 00:39:57;;;;;;;0.80;0.80;;;;;;;15.51;52.57;98713.59;5079266;28;20216;-66
2022/08/07 00:42:24;;;;;;;1.10;1.00;;;;;;;15.61;51.88;98719.84;5061292;28;20301;-67
2022/08/07 00:44:51;;;;;;;0.90;0.90;;;;;;;15.71;51.93;98715.50;5089038;28;20226;-68
2022/08/07 00:47:17;;;;;;;1.70;0.93;;;;;;;15.71;51.87;98715.50;5089188;28;20214;-68
2022/08/07 00:49:44;;;;;;;1.27;0.90;;;;;;;15.65;52.18;98706.16;5086475;28;20221;-68
2022/08/07 00:52:12;;;;;;;1.60;0.90;;;;;;;15.55;52.96;98717.69;5088747;28;20244;-68
2022/08/07 00:54:38;;;;;;;0.80;0.80;;;;;;;15.59;52.58;98717.31;5089199;28;20211;-68
2022/08/07 00:57:06;;;;;;;1.27;0.90;;;;;;;15.58;52.71;98720.13;5086120;28;20222;-68
2022/08/07 00:59:33;;;;;;;3.70;1.00;;;;;;;15.66;52.50;98723.00;5085495;28;20225;-66
2022/08/07 01:02:01;;;;;;;1.50;0.80;;;;;;;15.51;53.70;98724.25;5088792;28;20207;-66
2022/08/07 01:04:28;;;;;;;0.90;0.90;;;;;;;15.43;53.46;98721.31;5089192;28;20206;-66
2022/08/07 01:06:54;;;;;;;1.10;1.00;;;;;;;15.35;53.86;98726.41;5089172;28;20218;-66
2022/08/07 01:09:23;;;;;;;0.83;0.83;;;;;;;15.42;53.74;98714.31;5085294;28;20301;-67
2022/08/07 01:11:50;;;;;;;1.00;0.87;;;;;;;15.29;54.64;98716.22;5088436;28;20230;-67
2022/08/07 01:14:17;;;;;;;0.90;0.90;;;;;;;15.00;56.37;98713.19;5088778;28;20663;-67
2022/08/07 01:16:44;;;;;;;2.20;0.90;;;;;;;14.84;57.66;98722.47;5088723;28;20211;-67
2022/08/07 01:19:12;;;;;;;1.00;0.90;;;;;;;14.88;56.75;98718.59;5087200;28;20234;-67
2022/08/07 01:21:40;;;;;;;1.80;1.03;;;;;;;14.95;56.28;98717.16;5092045;28;20221;-67
2022/08/07 01:24:08;;;;;;;1.47;1.10;;;;;;;15.02;56.05;98713.06;5085110;28;20207;-67
2022/08/07 01:26:35;;;;;;;2.10;0.90;;;;;;;15.05;55.84;98705.69;5075706;28;20211;-67
2022/08/07 01:29:02;;;;;;;1.30;1.13;;;;;;;15.07;55.98;98713.53;5088769;28;20214;-67
2022/08/07 01:31:30;;;;;;;1.10;0.80;;;;;;;15.08;55.96;98709.91;5091881;28;20234;-67
2022/08/07 01:33:57;;;;;;;1.20;1.10;;;;;;;15.14;55.63;98704.09;5092546;28;20242;-67
2022/08/07 01:36:24;;;;;;;1.27;1.00;;;;;;;15.14;55.88;98704.09;5079590;28;20227;-67
2022/08/07 01:38:52;;;;;;;1.00;0.90;;;;;;;14.99;56.88;98707.97;5075295;28;20211;-67
2022/08/07 01:41:20;;;;;;;2.03;1.00;;;;;;;14.96;57.19;98709.06;5092045;28;20214;-67
2022/08/07 01:43:48;;;;;;;1.00;0.90;;;;;;;14.94;57.56;98704.81;5092425;28;20228;-67
2022/08/07 01:46:15;;;;;;;1.20;1.10;;;;;;;14.97;57.13;98707.25;5092386;28;20219;-67
2022/08/07 01:48:42;;;;;;;1.70;1.03;;;;;;;14.90;57.51;98701.53;5089989;28;20590;-67
2022/08/07 01:51:12;;;;;;;1.10;1.00;;;;;;;14.96;57.48;98708.22;5091659;28;20245;-67
2022/08/07 01:53:44;;;;;;;1.47;1.00;;;;;;;14.92;58.03;98704.09;5092298;28;20374;-67
2022/08/07 01:56:14;;;;;;;1.93;1.00;;;;;;;14.94;57.87;98704.81;5092263;28;20214;-67
2022/08/07 01:58:48;;;;;;;0.83;0.83;;;;;;;15.02;57.31;98699.75;5088950;28;20216;-66
2022/08/07 02:01:20;;;;;;;1.43;1.00;;;;;;;14.99;58.02;98699.97;5090389;28;20305;-67
2022/08/07 02:03:53;;;;;;;0.90;0.90;;;;;;;15.04;57.77;98708.47;5092151;28;20221;-66
2022/08/07 02:06:22;;;;;;;1.80;1.00;;;;;;;14.95;58.16;98698.50;5089863;28;20217;-67
2022/08/07 02:08:49;;;;;;;1.37;0.90;;;;;;;14.95;57.85;98699.38;5091131;28;20237;-67
2022/08/07 02:11:17;;;;;;;1.23;1.13;;;;;;;15.02;57.75;98695.25;5091826;28;20239;-66
2022/08/07 02:13:44;;;;;;;0.93;0.80;;;;;;;15.09;57.62;98695.66;5089437;28;20225;-67
2022/08/07 02:16:11;;;;;;;3.23;1.00;;;;;;;15.06;57.61;98691.41;5089835;28;20214;-66
2022/08/07 02:18:39;;;;;;;1.17;1.00;;;;;;;15.03;57.73;98691.63;5090530;28;20210;-66
2022/08/07 02:21:08;;;;;;;1.27;1.17;;;;;;;14.84;59.27;98680.72;5091905;28;20245;-66
2022/08/07 02:23:37;;;;;;;1.30;1.20;;;;;;;14.83;59.35;98683.50;5091748;28;20232;-67
2022/08/07 02:26:05;;;;;;;1.00;1.00;;;;;;;14.70;60.33;98696.91;5075657;28;20219;-67
2022/08/07 02:28:36;;;;;;;1.00;0.90;;;;;;;14.65;60.83;98679.59;5076584;28;20684;-67
2022/08/07 02:31:06;;;;;;;3.30;1.10;;;;;;;14.78;59.61;98680.38;5091158;28;20222;-66
2022/08/07 02:33:34;;;;;;;1.37;1.10;;;;;;;14.79;59.42;98684.72;5091485;28;20221;-66
2022/08/07 02:36:02;;;;;;;1.13;1.03;;;;;;;14.76;60.19;98679.63;5088162;28;20227;-66
2022/08/07 02:38:33;;;;;;;1.30;1.00;;;;;;;14.81;59.60;98673.00;5091037;28;20220;-67
2022/08/07 02:41:00;;;;;;;0.97;0.90;;;;;;;14.88;59.28;98676.00;5084910;28;20207;-66
2022/08/07 02:43:28;;;;;;;1.70;1.10;;;;;;;14.85;59.59;98673.59;5091251;28;20211;-67
2022/08/07 02:45:58;;;;;;;1.70;1.10;;;;;;;14.85;60.12;98673.59;5084853;28;20691;-67
2022/08/07 02:48:25;;;;;;;1.40;1.20;;;;;;;14.79;60.29;98682.06;5091249;28;20582;-67
2022/08/07 02:50:55;;;;;;;1.30;1.20;;;;;;;14.70;61.48;98677.44;5091212;28;20259;-67
2022/08/07 02:53:25;;;;;;;1.73;0.90;;;;;;;14.57;61.76;98682.00;5089170;28;20238;-67
2022/08/07 02:55:53;;;;;;;1.10;1.00;;;;;;;14.59;61.50;98680.91;5089012;28;20208;-67
2022/08/07 02:58:23;;;;;;;1.47;1.03;;;;;;;14.47;62.30;98670.34;5090746;28;20226;-67
2022/08/07 03:00:52;;;;;;;2.20;1.20;;;;;;;14.38;62.93;98669.28;5091315;28;20214;-66
2022/08/07 03:03:23;;;;;;;1.60;1.00;;;;;;;14.28;63.32;98673.59;5089663;28;20269;-67
2022/08/07 03:05:51;;;;;;;2.20;1.07;;;;;;;14.19;64.28;98670.78;5089985;28;20207;-67
2022/08/07 03:08:18;;;;;;;1.20;1.10;;;;;;;14.03;64.99;98670.19;5090995;28;20577;-67
2022/08/07 03:10:46;;;;;;;1.20;1.03;;;;;;;14.06;65.28;98675.28;5090933;28;20218;-67
2022/08/07 03:13:14;;;;;;;1.30;1.00;;;;;;;13.91;66.26;98673.75;5088507;28;20234;-67
2022/08/07 03:15:41;;;;;;;1.40;1.30;;;;;;;13.79;67.12;98678.16;5089466;28;20215;-66
2022/08/07 03:18:08;;;;;;;0.97;0.97;;;;;;;13.64;68.05;98671.31;5089816;28;20820;-67
2022/08/07 03:20:36;;;;;;;1.30;1.20;;;;;;;13.60;69.20;98676.97;5089205;28;20586;-66
2022/08/07 03:23:04;;;;;;;1.60;1.10;;;;;;;13.51;70.13;98677.63;5088717;28;20464;-67
2022/08/07 03:25:33;;;;;;;4.40;1.50;;;;;;;13.52;69.85;98671.34;5089320;28;20215;-67
2022/08/07 03:28:01;;;;;;;1.20;1.10;;;;;;;13.49;70.33;98675.09;5089679;28;20676;-66
2022/08/07 03:30:29;;;;;;;1.50;1.40;;;;;;;13.44;70.74;98682.53;5090415;28;20317;-66
2022/08/07 03:32:58;;;;;;;2.30;1.10;;;;;;;13.38;71.62;98688.28;5087916;28;20240;-66
2022/08/07 03:35:27;;;;;;;2.17;1.20;;;;;;;13.29;72.00;98680.13;5089582;28;20673;-66
2022/08/07 03:38:02;;;;;;;1.10;1.10;;;;;;;13.23;73.43;98683.22;5090166;28;20217;-66
2022/08/07 03:40:30;;;;;;;2.00;1.10;;;;;;;13.18;73.86;98678.25;5090285;28;20217;-67
2022/08/07 03:42:57;;;;;;;1.93;1.10;;;;;;;13.12;74.46;98681.31;5083286;28;20222;-67
2022/08/07 03:45:25;;;;;;;1.20;1.20;;;;;;;13.13;74.50;98687.47;5088675;28;20591;-67
2022/08/07 03:47:52;;;;;;;1.33;1.23;;;;;;;13.09;74.75;98683.34;5089907;28;20237;-66
2022/08/07 03:50:20;;;;;;;1.30;1.20;;;;;;;13.13;74.61;98684.81;5090007;28;20214;-66
2022/08/07 03:52:48;;;;;;;1.20;1.10;;;;;;;13.12;74.21;98685.78;5083754;28;20241;-66
2022/08/07 03:55:17;;;;;;;1.93;1.33;;;;;;;13.15;74.50;98672.31;5089955;28;20206;-66
2022/08/07 03:57:45;;;;;;;1.00;1.00;;;;;;;13.15;74.54;98680.25;5089924;28;20214;-66
2022/08/07 04:00:13;;;;;;;1.90;1.37;;;;;;;13.23;74.16;98673.47;5089606;28;20214;-66
2022/08/07 04:02:41;;;;;;;1.60;1.30;;;;;;;13.20;74.83;98678.13;5087122;28;20216;-66
2022/08/07 04:05:08;;;;;;;2.30;1.20;;;;;;;13.15;76.02;98674.97;5089884;28;20244;-66
2022/08/07 04:07:35;;;;;;;1.40;1.30;;;;;;;13.15;75.91;98674.97;5089636;28;20583;-66
2022/08/07 04:10:02;;;;;;;1.50;1.30;;;;;;;13.21;75.40;98674.53;5089189;28;20221;-66
2022/08/07 04:12:31;;;;;;;1.30;1.20;;;;;;;13.16;75.84;98679.31;5085492;28;20231;-66
2022/08/07 04:14:59;;;;;;;1.30;1.20;;;;;;;13.10;76.35;98680.59;5089440;28;20221;-67
2022/08/07 04:17:25;;;;;;;1.80;1.30;;;;;;;13.14;75.95;98678.56;5089785;28;20215;-66
2022/08/07 04:19:52;;;;;;;1.30;1.20;;;;;;;13.23;75.01;98688.53;5089406;28;20230;-66
2022/08/07 04:22:19;;;;;;;1.23;1.13;;;;;;;13.31;74.34;98691.47;5086538;28;20667;-66
2022/08/07 04:24:47;;;;;;;1.30;1.20;;;;;;;13.42;73.32;98696.88;5089387;28;20271;-66
2022/08/07 04:27:14;;;;;;;2.17;1.40;;;;;;;13.52;72.53;98700.56;5089295;28;20214;-66
2022/08/07 04:29:43;;;;;;;1.30;1.20;;;;;;;13.52;73.07;98690.78;5089137;28;20214;-66
2022/08/07 04:32:10;;;;;;;1.27;1.23;;;;;;;13.56;74.57;98702.06;5083761;28;20661;-66
2022/08/07 04:34:37;;;;;;;1.27;1.17;;;;;;;13.59;74.41;98701.81;5089325;28;20305;-66
2022/08/07 04:37:04;;;;;;;2.07;1.30;;;;;;;13.62;74.24;98706.94;5087900;28;20216;-66
2022/08/07 04:39:31;;;;;;;2.00;1.40;;;;;;;13.66;74.86;98713.69;5083131;28;20212;-66
2022/08/07 04:41:57;;;;;;;1.70;1.40;;;;;;;13.73;74.69;98704.31;5083461;28;20394;-67
2022/08/07 04:44:24;;;;;;;1.83;1.40;;;;;;;13.80;73.84;98706.44;5089305;28;20235;-66
2022/08/07 04:47:02;;;;;;;2.07;1.27;;;;;;;13.90;73.43;98707.47;5089148;28;20207;-66
2022/08/07 04:49:38;;;;;;;1.40;1.30;;;;;;;13.95;72.03;98709.78;5087814;28;20218;-66
2022/08/07 04:52:14;;;;;;;1.07;1.03;;;;;;;14.07;72.12;98715.03;5088753;28;20273;-66
2022/08/07 04:54:47;;;;;;;1.40;1.30;;;;;;;14.09;73.80;98709.59;5092234;28;20222;-66
2022/08/07 04:57:22;;;;;;;1.27;1.17;;;;;;;14.16;73.86;98711.69;5093399;28;20578;-66
2022/08/07 04:59:56;;;;;;;1.90;1.60;;;;;;;14.26;73.06;98719.84;5091714;28;20221;-66
2022/08/07 05:02:27;;;;;;;1.20;1.10;;;;;;;14.27;75.20;98716.22;5091488;28;20575;-66
2022/08/07 05:05:00;;;;;;;1.20;1.20;;;;;;;14.33;76.83;98705.13;5093258;28;20218;-66
2022/08/07 05:07:36;;;;;;;1.50;1.40;;;;;;;14.46;76.26;98711.22;5089905;28;20233;-66
2022/08/07 05:10:08;;;;;;;1.53;1.40;;;;;;;14.62;74.49;98714.44;5092913;28;20210;-66
2022/08/07 05:12:38;;;;;;;2.03;1.40;;;;;;;14.78;72.03;98713.13;5092908;28;20240;-66
2022/08/07 05:15:15;;;;;;;1.40;1.30;;;;;;;14.94;71.08;98712.78;5091721;28;20328;-66
2022/08/07 05:17:47;;;;;;;2.60;1.57;;;;;;;15.11;70.04;98709.66;5092507;28;20214;-66
2022/08/07 05:20:16;;;;;;;1.63;1.30;;;;;;;15.20;70.24;98715.13;5093074;28;20245;-66
2022/08/07 05:22:46;;;;;;;2.90;1.30;;;;;;;15.37;67.25;98729.81;5092710;28;20246;-66
2022/08/07 05:25:16;;;;;;;1.20;1.10;;;;;;;15.53;68.09;98723.13;5086461;28;20677;-66
2022/08/07 05:27:43;;;;;;;2.43;1.50;;;;;;;15.70;66.82;98725.28;5092759;28;20246;-66
2022/08/07 05:30:11;;;;;;;1.43;1.30;;;;;;;15.79;66.08;98723.72;5091114;28;20613;-66
2022/08/07 05:32:40;;;;;;;1.83;1.40;;;;;;;15.89;66.30;98724.66;5092137;28;20237;-66
2022/08/07 05:35:10;;;;;;;1.50;1.40;;;;;;;16.01;66.14;98723.66;5090037;28;20214;-66
2022/08/07 05:37:39;;;;;;;2.33;1.47;;;;;;;16.17;66.15;98728.47;5092396;28;20590;-66
2022/08/07 05:40:06;;;;;;;1.53;1.43;;;;;;;16.44;64.88;98728.03;5092501;28;20637;-66
2022/08/07 05:42:33;;;;;;;2.13;1.63;;;;;;;17.14;63.24;98729.91;5091745;28;20219;-66
2022/08/07 05:45:01;;;;;;;2.00;1.80;;;;;;;18.09;59.06;98727.63;5090441;28;20207;-66
2022/08/07 05:47:28;;;;;;;1.80;1.70;;;;;;;18.99;55.93;98718.34;5092350;28;20210;-67
2022/08/07 05:49:54;;;;;;;2.97;1.60;;;;;;;19.89;53.74;98728.34;5092369;28;20217;-66
2022/08/07 05:52:22;;;;;;;2.80;1.80;;;;;;;20.38;51.30;98736.84;5091669;28;20234;-66
2022/08/07 05:54:49;;;;;;;3.20;1.90;;;;;;;20.89;50.00;98730.75;5088249;28;20208;-67
2022/08/07 05:57:16;;;;;;;2.13;1.40;;;;;;;21.49;48.48;98735.22;5086882;28;20218;-66
2022/08/07 05:59:46;;;;;;;2.13;1.90;;;;;;;22.07;47.30;98731.66;5084681;28;20218;-67
2022/08/07 06:02:16;;;;;;;1.80;1.63;;;;;;;22.65;45.85;98737.88;5091229;28;20298;-67
2022/08/07 06:04:57;;;;;;;1.90;1.80;;;;;;;22.83;45.27;98735.03;5089581;28;20212;-67
2022/08/07 06:07:27;;;;;;;1.93;1.83;;;;;;;23.12;44.93;98730.81;5091752;28;20230;-67
2022/08/07 06:09:54;;;;;;;2.00;1.80;;;;;;;23.43;44.54;98736.34;5091756;28;20691;-66
2022/08/07 06:12:21;;;;;;;2.30;2.10;;;;;;;23.86;44.00;98738.59;5088778;28;20366;-66
2022/08/07 06:14:48;;;;;;;1.77;1.67;;;;;;;24.28;43.36;98737.25;5092042;28;20226;-67
2022/08/07 06:17:15;;;;;;;2.10;1.90;;;;;;;24.52;42.99;98747.94;5091569;28;20220;-66
2022/08/07 06:19:42;;;;;;;2.30;2.10;;;;;;;24.53;42.39;98741.50;5091680;28;20246;-67
2022/08/07 06:22:09;;;;;;;2.40;2.20;;;;;;;24.47;42.93;98741.34;5086855;28;20222;-66
2022/08/07 06:24:37;;;;;;;2.43;1.90;;;;;;;24.72;42.69;98740.22;5065449;28;20219;-66
2022/08/07 06:27:04;;;;;;;3.03;2.33;;;;;;;25.18;42.21;98734.56;5091679;28;20583;-66
2022/08/07 06:29:32;;;;;;;2.33;2.13;;;;;;;25.56;41.57;98744.41;5091613;28;20215;-67
2022/08/07 06:31:59;;;;;;;2.40;2.20;;;;;;;25.31;41.41;98742.94;5088334;28;20269;-66
2022/08/07 06:34:26;;;;;;;2.37;2.10;;;;;;;25.44;41.22;98736.91;5065364;28;20604;-66
2022/08/07 06:36:53;;;;;;;2.00;1.90;;;;;;;25.17;41.44;98732.06;5091676;28;20566;-66
2022/08/07 06:39:21;;;;;;;2.53;2.33;;;;;;;24.53;42.86;98738.81;5087104;28;20575;-66
2022/08/07 06:41:57;;;;;;;2.30;2.10;;;;;;;24.26;43.67;98728.47;5087703;28;20208;-66
2022/08/07 06:44:26;;;;;;;2.40;1.90;;;;;;;24.05;43.75;98728.25;5067122;28;20236;-70
2022/08/07 06:46:52;;;;;;;2.83;2.40;;;;;;;23.60;45.35;98728.03;5089683;28;20211;-70
2022/08/07 06:49:19;;;;;;;2.97;2.60;;;;;;;22.25;48.35;98732.38;5091303;28;20210;-70
2022/08/07 06:51:47;;;;;;;2.70;2.50;;;;;;;21.06;52.12;98730.75;5088316;28;20211;-69
2022/08/07 06:54:16;;;;;;;2.83;2.50;;;;;;;20.42;54.89;98735.50;5091231;28;20236;-70
2022/08/07 06:56:45;;;;;;;3.10;2.60;;;;;;;19.97;56.10;98731.97;5091053;28;20210;-70
2022/08/07 06:59:16;;;;;;;3.00;2.80;;;;;;;19.63;58.79;98730.88;5090571;28;20229;-70
2022/08/07 07:01:44;;;;;;;3.27;2.53;;;;;;;19.48;60.06;98729.69;5088715;28;20212;-70
2022/08/07 07:04:12;;;;;;;3.37;2.43;;;;;;;19.52;60.36;98731.06;5090682;28;20217;-70
2022/08/07 07:06:38;;;;;;;3.10;2.80;;;;;;;19.52;60.77;98738.28;5090674;28;20221;-70
2022/08/07 07:09:22;;;;;;;2.90;2.60;;;;;;;19.43;60.42;98728.41;5087695;28;20207;-69
2022/08/07 07:12:00;;;;;;;3.17;2.43;;;;;;;19.53;60.58;98731.91;5061774;28;20242;-70
2022/08/07 07:14:31;;;;;;;2.50;2.30;;;;;;;19.62;61.37;98734.56;5079877;28;20656;-70
2022/08/07 07:17:03;;;;;;;4.83;2.50;;;;;;;19.69;60.72;98732.13;5086456;28;20218;-69
2022/08/07 07:19:33;;;;;;;4.13;2.90;;;;;;;19.78;60.07;98732.09;5085315;28;20619;-70
2022/08/07 07:22:00;;;;;;;4.17;2.80;;;;;;;19.75;60.08;98729.69;5089091;28;20595;-70
2022/08/07 07:24:27;;;;;;;3.47;3.17;;;;;;;19.84;61.22;98730.63;5088993;28;20695;-69
2022/08/07 07:26:56;;;;;;;2.60;2.40;;;;;;;19.82;60.87;98733.47;5086404;28;20237;-69
2022/08/07 07:29:27;;;;;;;3.47;2.87;;;;;;;19.84;60.91;98731.50;5088101;28;20677;-71
2022/08/07 07:31:56;;;;;;;3.77;2.70;;;;;;;19.95;61.98;98733.97;5088900;28;20610;-76
2022/08/07 07:34:26;;;;;;;3.03;2.20;;;;;;;20.05;61.32;98724.00;5089182;28;20299;-72
2022/08/07 07:36:54;;;;;;;2.63;2.43;;;;;;;20.28;61.31;98730.69;5085887;28;20298;-72
2022/08/07 07:39:22;;;;;;;3.40;2.47;;;;;;;20.41;60.54;98725.78;5061253;28;20230;-72
2022/08/07 07:41:51;;;;;;;2.53;2.33;;;;;;;20.65;60.60;98720.63;5088727;28;20664;-72
2022/08/07 07:44:20;;;;;;;2.60;2.37;;;;;;;20.83;58.68;98723.28;5089087;28;20217;-71
2022/08/07 07:46:49;;;;;;;2.87;2.50;;;;;;;20.96;58.78;98724.63;5085479;28;20758;-72
2022/08/07 07:49:19;;;;;;;2.27;2.07;;;;;;;20.96;58.44;98716.56;5088904;28;20210;-71
2022/08/07 07:51:48;;;;;;;2.83;2.60;;;;;;;21.12;58.54;98716.69;5088668;28;20218;-72
2022/08/07 07:54:16;;;;;;;2.37;1.83;;;;;;;21.36;57.60;98715.97;5088461;28;20263;-72
2022/08/07 07:56:44;;;;;;;2.07;1.97;;;;;;;21.53;56.11;98715.06;5086016;28;20218;-72
2022/08/07 07:59:13;;;;;;;2.40;2.20;;;;;;;21.63;54.06;98703.19;5088747;28;20210;-72
2022/08/07 08:01:43;;;;;;;2.23;2.03;;;;;;;21.81;54.49;98711.19;5089272;28;20676;-72
2022/08/07 08:04:11;;;;;;;2.23;2.00;;;;;;;21.87;53.75;98702.47;5088516;28;20676;-72
2022/08/07 08:06:40;;;;;;;3.00;1.90;;;;;;;21.91;53.35;98704.69;5085836;28;20207;-72
2022/08/07 08:09:08;;;;;;;2.37;1.90;;;;;;;21.96;53.29;98696.97;5089745;28;20218;-72
2022/08/07 08:11:35;;;;;;;2.27;2.00;;;;;;;22.00;53.32;98697.50;5089794;28;20206;-72
2022/08/07 08:14:02;;;;;;;2.23;1.87;;;;;;;22.18;52.78;98695.53;5088539;28;20267;-73
2022/08/07 08:16:32;;;;;;;3.13;2.00;;;;;;;22.34;53.09;98691.00;5087955;28;20222;-73
2022/08/07 08:19:02;;;;;;;2.10;1.93;;;;;;;22.43;50.97;98694.59;5089237;28;20233;-73
2022/08/07 08:27:08;;;;;;;2.40;1.40;;;;;;;22.91;46.70;98684.66;5085415;28;20269;-72
2022/08/07 08:29:41;;;;;;;2.27;1.30;;;;;;;23.10;44.17;98681.59;5085039;28;20271;-71
2022/08/07 08:32:10;;;;;;;1.40;1.30;;;;;;;23.16;45.44;98682.78;5083108;28;20238;-72
2022/08/07 08:34:39;;;;;;;1.03;1.00;;;;;;;23.19;42.84;98677.91;5089516;28;20231;-72
2022/08/07 08:37:08;;;;;;;1.30;1.20;;;;;;;23.28;42.39;98676.88;5089702;28;20211;-72
2022/08/07 08:39:38;;;;;;;1.10;1.00;;;;;;;23.35;42.20;98688.66;5082944;28;20211;-72
2022/08/07 08:42:10;;;;;;;0.93;0.87;;;;;;;23.39;41.64;98684.59;5088038;28;20211;-72
2022/08/07 08:44:42;;;;;;;1.27;1.00;;;;;;;23.51;41.35;98683.22;5089333;28;20211;-71
2022/08/07 08:47:26;;;;;;;1.10;1.00;;;;;;;23.52;41.39;98679.50;5089049;28;20217;-71
2022/08/07 08:50:01;;;;;;;1.50;0.97;;;;;;;23.50;41.30;98681.53;5085247;28;20688;-71
2022/08/07 08:52:33;;;;;;;1.30;1.10;;;;;;;23.60;41.13;98673.25;5089382;28;20214;-72
2022/08/07 08:55:09;;;;;;;0.90;0.90;;;;;;;23.61;40.63;98678.47;5089192;28;20235;-71
2022/08/07 08:57:42;;;;;;;1.57;1.10;;;;;;;23.86;38.53;98681.91;5083127;28;20206;-72
2022/08/07 09:00:10;;;;;;;1.17;0.90;;;;;;;23.83;38.85;98674.16;5087538;28;20228;-70
2022/08/07 09:02:44;;;;;;;1.53;1.00;;;;;;;23.74;39.40;98684.16;5088884;28;20221;-70
2022/08/07 09:05:23;;;;;;;1.20;1.10;;;;;;;23.60;39.85;98684.03;5087670;28;20211;-71
2022/08/07 09:07:57;;;;;;;1.77;1.00;;;;;;;23.64;40.85;98678.09;5063176;28;20215;-71
2022/08/07 09:10:29;;;;;;;0.90;0.90;;;;;;;23.77;39.52;98673.00;5089297;28;20219;-71
2022/08/07 09:13:08;;;;;;;1.27;1.00;;;;;;;23.87;40.11;98676.34;5088633;28;20297;-71
2022/08/07 09:15:51;;;;;;;2.57;0.90;;;;;;;23.96;38.99;98672.59;5087887;28;20214;-71
2022/08/07 09:18:33;;;;;;;0.93;0.90;;;;;;;23.97;38.86;98665.34;5088666;28;20672;-72
2022/08/07 09:21:10;;;;;;;1.20;1.00;;;;;;;24.09;40.03;98675.53;5086998;28;20241;-71
2022/08/07 09:23:52;;;;;;;1.57;0.97;;;;;;;24.16;39.20;98673.84;5063897;28;20214;-71
2022/08/07 09:26:27;;;;;;;0.97;0.97;;;;;;;24.26;38.69;98674.44;5087080;28;20215;-71
2022/08/07 09:29:02;;;;;;;1.10;1.00;;;;;;;24.25;38.82;98671.94;5086394;28;20213;-71
2022/08/07 09:31:38;;;;;;;1.00;0.90;;;;;;;24.32;38.73;98668.31;5063757;28;20217;-70
2022/08/07 09:34:13;;;;;;;1.00;0.90;;;;;;;24.18;37.60;98671.81;5088808;28;20234;-69
2022/08/07 09:36:48;;;;;;;1.00;1.00;;;;;;;23.93;38.59;98677.50;5086932;28;20736;-71
2022/08/07 09:39:31;;;;;;;1.40;0.97;;;;;;;23.94;38.43;98674.63;5088401;28;20210;-71
2022/08/07 09:42:06;;;;;;;1.13;1.13;;;;;;;24.11;38.58;98675.38;5088157;28;20207;-71
2022/08/07 09:44:44;;;;;;;1.20;1.10;;;;;;;24.29;37.78;98668.69;5075393;28;20211;-71
2022/08/07 09:47:18;;;;;;;0.90;0.90;;;;;;;24.50;37.80;98662.63;5066293;28;20211;-72
2022/08/07 09:49:57;;;;;;;0.90;0.80;;;;;;;24.53;38.29;98660.41;5092297;28;20210;-71
2022/08/07 09:52:30;;;;;;;3.77;1.10;;;;;;;24.66;36.17;98668.78;5089015;28;20220;-71
2022/08/07 09:55:04;;;;;;;0.90;0.70;;;;;;;24.75;35.50;98658.75;5091218;28;20712;-71
2022/08/07 09:58:25;;;;;;;1.80;0.90;;;;;;;24.85;35.70;98659.31;5091864;28;20701;-71
2022/08/07 10:01:04;;;;;;;2.13;0.90;;;;;;;24.75;35.65;98651.47;5088976;28;20210;-71
2022/08/07 10:03:52;;;;;;;0.80;0.80;;;;;;;24.84;35.63;98652.22;5092211;28;20222;-73
2022/08/07 10:06:37;;;;;;;0.67;0.67;;;;;;;24.91;34.84;98640.50;5088984;28;20215;-72
2022/08/07 10:09:13;;;;;;;0.90;0.90;;;;;;;24.99;35.21;98645.00;5070262;28;20265;-71
2022/08/07 10:11:59;;;;;;;1.43;1.03;;;;;;;24.96;34.88;98640.81;5091970;28;20218;-71
2022/08/07 10:14:48;;;;;;;0.97;0.87;;;;;;;24.88;34.52;98638.16;5087085;28;20708;-71
2022/08/07 10:17:39;;;;;;;1.07;0.70;;;;;;;24.94;34.34;98628.47;5090239;28;20210;-71
2022/08/07 10:20:16;;;;;;;1.10;0.70;;;;;;;25.16;34.96;98631.13;5088792;28;20304;-71
2022/08/07 10:23:07;;;;;;;1.90;1.03;;;;;;;25.15;34.16;98628.59;5068119;28;20311;-71
2022/08/07 10:25:47;;;;;;;1.73;0.80;;;;;;;25.10;34.08;98628.31;5091383;28;20214;-71
2022/08/07 10:28:30;;;;;;;1.10;0.80;;;;;;;25.11;33.68;98624.59;5087944;28;20203;-71
2022/08/07 10:31:10;;;;;;;2.10;1.03;;;;;;;25.17;32.66;98619.25;5091376;28;20206;-72
2022/08/07 10:34:04;;;;;;;0.90;0.77;;;;;;;25.24;33.08;98616.69;5090800;28;20210;-72
2022/08/07 10:36:41;;;;;;;0.87;0.67;;;;;;;25.36;33.04;98616.03;5068333;28;20268;-72
2022/08/07 10:39:19;;;;;;;0.53;0.53;;;;;;;25.45;33.12;98606.81;5088530;28;20686;-72
2022/08/07 10:41:55;;;;;;;1.23;0.80;;;;;;;25.43;32.85;98605.31;5087507;28;20215;-72
2022/08/07 10:44:31;;;;;;;0.80;0.70;;;;;;;25.56;32.04;98606.34;5066078;28;20213;-71
2022/08/07 10:47:05;;;;;;;0.80;0.70;;;;;;;25.34;34.26;98601.84;5091404;28;20207;-71
2022/08/07 10:49:37;;;;;;;0.70;0.70;;;;;;;25.37;32.30;98597.94;5088706;28;20209;-71
2022/08/07 10:52:09;;;;;;;2.15;0.60;;;;;;;25.20;34.21;98601.81;5065009;28;20226;-72
2022/08/07 10:54:42;;;;;;;1.70;0.70;;;;;;;25.33;32.50;98599.34;5091224;28;20258;-71
2022/08/07 10:57:15;;;;;;;0.60;0.60;;;;;;;25.28;32.36;98594.50;5085654;28;20218;-71
2022/08/07 10:59:58;;;;;;;0.60;0.60;;;;;;;25.27;32.95;98589.25;5089364;28;20219;-71
2022/08/07 11:02:31;;;;;;;1.63;0.70;;;;;;;25.28;33.46;98586.38;5090896;28;20644;-71
2022/08/07 11:05:09;;;;;;;1.63;0.70;;;;;;;25.45;32.52;98582.44;5090829;28;20221;-71
2022/08/07 11:07:40;;;;;;;0.77;0.63;;;;;;;25.64;32.73;98587.28;5088027;28;20402;-71
2022/08/07 11:10:16;;;;;;;0.70;0.67;;;;;;;25.57;32.92;98585.50;5089331;28;20245;-71
2022/08/07 11:12:52;;;;;;;0.70;0.63;;;;;;;25.61;31.98;98568.69;5090988;28;20216;-71
2022/08/07 11:15:23;;;;;;;0.80;0.60;;;;;;;25.64;32.31;98570.16;5085003;28;20238;-71
2022/08/07 11:17:58;;;;;;;1.33;0.77;;;;;;;25.66;32.38;98558.13;5090774;28;20211;-72
2022/08/07 11:20:35;;;;;;;1.10;0.80;;;;;;;25.62;31.55;98551.44;5090659;28;20238;-71
2022/08/07 11:23:10;;;;;;;1.27;0.80;;;;;;;25.73;33.24;98559.03;5087491;28;20207;-72
2022/08/07 11:25:43;;;;;;;0.80;0.80;;;;;;;25.69;32.62;98555.06;5066742;28;20229;-72
2022/08/07 11:28:14;;;;;;;0.80;0.80;;;;;;;25.74;32.77;98544.50;5090753;28;20560;-72
2022/08/07 11:30:49;;;;;;;0.73;0.70;;;;;;;25.95;31.07;98549.94;5089430;28;20227;-70
2022/08/07 11:33:24;;;;;;;0.95;0.63;;;;;;;25.93;32.18;98546.59;5089659;28;20236;-71
2022/08/07 11:36:06;;;;;;;0.97;0.60;;;;;;;25.82;32.88;98540.81;5088527;28;20671;-72
2022/08/07 11:38:39;;;;;;;1.20;0.70;;;;;;;25.92;32.43;98535.97;5088918;28;20215;-72
2022/08/07 11:41:13;;;;;;;1.03;0.70;;;;;;;26.07;32.34;98537.56;5076457;28;20220;-72
2022/08/07 11:43:48;;;;;;;0.70;0.70;;;;;;;26.15;32.58;98537.44;5089930;28;20877;-72
2022/08/07 11:46:34;;;;;;;0.57;0.57;;;;;;;26.27;32.14;98535.88;5090241;28;20207;-72
2022/08/07 11:49:25;;;;;;;1.00;0.90;;;;;;;26.27;30.75;98540.47;5088815;28;20213;-73
2022/08/07 11:52:08;;;;;;;2.38;0.68;;;;;;;26.21;31.31;98542.06;5086864;28;20739;-71
2022/08/07 11:54:48;;;;;;;0.82;0.82;;;;;;;25.89;31.85;98531.72;5086769;28;20231;-72
2022/08/07 11:57:22;;;;;;;1.43;0.77;;;;;;;25.95;32.05;98547.25;5090050;28;20222;-72